sensor_id;sensor_type;location;lat;lon;timestamp;P1;durP1;ratioP1;P2;durP2;ratioP2
58864;SDS011;45702;52.982;6.658;2023-01-29T00:01:02;50.30;;;22.35;;
58864;SDS011;45702;52.982;6.658;2023-01-29T00:03:29;46.80;;;23.05;;
58864;SDS011;45702;52.982;6.658;2023-01-29T00:05:55;52.80;;;24.38;;
58864;SDS011;45702;52.982;6.658;2023-01-29T00:08:20;45.97;;;24.48;;
58864;SDS011;45702;52.982;6.658;2023-01-29T00:10:46;50.60;;;24.45;;
58864;SDS011;45702;52.982;6.658;2023-01-29T00:13:12;48.25;;;25.02;;
58864;SDS011;45702;52.982;6.658;2023-01-29T00:15:38;53.55;;;25.25;;
58864;SDS011;45702;52.982;6.658;2023-01-29T00:18:03;53.88;;;26.17;;
58864;SDS011;45702;52.982;6.658;2023-01-29T00:20:29;52.47;;;25.70;;
58864;SDS011;45702;52.982;6.658;2023-01-29T00:22:55;53.30;;;25.02;;
58864;SDS011;45702;52.982;6.658;2023-01-29T00:25:21;54.33;;;26.42;;
58864;SDS011;45702;52.982;6.658;2023-01-29T00:27:47;57.00;;;26.58;;
58864;SDS011;45702;52.982;6.658;2023-01-29T00:30:12;55.13;;;26.70;;
58864;SDS011;45702;52.982;6.658;2023-01-29T00:32:40;53.05;;;26.25;;
58864;SDS011;45702;52.982;6.658;2023-01-29T00:35:06;56.13;;;26.08;;
58864;SDS011;45702;52.982;6.658;2023-01-29T00:37:33;55.10;;;27.55;;
58864;SDS011;45702;52.982;6.658;2023-01-29T00:39:59;57.65;;;27.20;;
58864;SDS011;45702;52.982;6.658;2023-01-29T00:42:25;55.08;;;26.80;;
58864;SDS011;45702;52.982;6.658;2023-01-29T00:45:10;57.30;;;27.40;;
58864;SDS011;45702;52.982;6.658;2023-01-29T00:47:36;54.47;;;27.45;;
58864;SDS011;45702;52.982;6.658;2023-01-29T00:50:03;59.33;;;28.70;;
58864;SDS011;45702;52.982;6.658;2023-01-29T00:52:31;57.85;;;28.77;;
58864;SDS011;45702;52.982;6.658;2023-01-29T00:54:58;58.20;;;28.77;;
58864;SDS011;45702;52.982;6.658;2023-01-29T00:57:25;57.85;;;28.13;;
58864;SDS011;45702;52.982;6.658;2023-01-29T00:59:53;60.22;;;28.02;;
58864;SDS011;45702;52.982;6.658;2023-01-29T01:02:19;54.42;;;28.70;;
58864;SDS011;45702;52.982;6.658;2023-01-29T01:05:04;59.45;;;29.27;;
58864;SDS011;45702;52.982;6.658;2023-01-29T01:07:31;59.67;;;29.98;;
58864;SDS011;45702;52.982;6.658;2023-01-29T01:09:57;60.05;;;30.42;;
58864;SDS011;45702;52.982;6.658;2023-01-29T01:12:42;60.28;;;29.75;;
58864;SDS011;45702;52.982;6.658;2023-01-29T01:15:08;58.70;;;29.55;;
58864;SDS011;45702;52.982;6.658;2023-01-29T01:17:34;63.92;;;31.25;;
58864;SDS011;45702;52.982;6.658;2023-01-29T01:20:00;59.20;;;30.08;;
58864;SDS011;45702;52.982;6.658;2023-01-29T01:22:26;67.95;;;32.10;;
58864;SDS011;45702;52.982;6.658;2023-01-29T01:24:51;67.03;;;31.52;;
58864;SDS011;45702;52.982;6.658;2023-01-29T01:27:17;60.78;;;29.27;;
58864;SDS011;45702;52.982;6.658;2023-01-29T01:29:44;66.05;;;31.80;;
58864;SDS011;45702;52.982;6.658;2023-01-29T01:32:10;65.15;;;30.17;;
58864;SDS011;45702;52.982;6.658;2023-01-29T01:34:36;59.50;;;29.75;;
58864;SDS011;45702;52.982;6.658;2023-01-29T01:37:02;62.47;;;31.08;;
58864;SDS011;45702;52.982;6.658;2023-01-29T01:39:28;64.93;;;31.10;;
58864;SDS011;45702;52.982;6.658;2023-01-29T01:41:54;64.13;;;31.85;;
58864;SDS011;45702;52.982;6.658;2023-01-29T01:47:37;65.68;;;31.42;;
58864;SDS011;45702;52.982;6.658;2023-01-29T01:50:14;66.57;;;31.35;;
58864;SDS011;45702;52.982;6.658;2023-01-29T01:52:47;65.65;;;32.47;;
58864;SDS011;45702;52.982;6.658;2023-01-29T01:55:18;68.90;;;32.35;;
58864;SDS011;45702;52.982;6.658;2023-01-29T01:57:48;63.15;;;31.77;;
58864;SDS011;45702;52.982;6.658;2023-01-29T02:00:17;72.60;;;34.05;;
58864;SDS011;45702;52.982;6.658;2023-01-29T02:02:45;65.63;;;32.30;;
58864;SDS011;45702;52.982;6.658;2023-01-29T02:05:32;70.05;;;34.72;;
58864;SDS011;45702;52.982;6.658;2023-01-29T02:08:18;68.75;;;32.63;;
58864;SDS011;45702;52.982;6.658;2023-01-29T02:11:10;76.57;;;33.25;;
58864;SDS011;45702;52.982;6.658;2023-01-29T02:13:37;74.68;;;33.67;;
58864;SDS011;45702;52.982;6.658;2023-01-29T02:16:02;70.00;;;33.78;;
58864;SDS011;45702;52.982;6.658;2023-01-29T02:18:28;73.00;;;32.72;;
58864;SDS011;45702;52.982;6.658;2023-01-29T02:32:41;71.20;;;31.80;;
58864;SDS011;45702;52.982;6.658;2023-01-29T02:35:39;67.60;;;31.73;;
58864;SDS011;45702;52.982;6.658;2023-01-29T02:38:42;65.28;;;32.40;;
58864;SDS011;45702;52.982;6.658;2023-01-29T02:41:13;69.95;;;31.85;;
58864;SDS011;45702;52.982;6.658;2023-01-29T02:43:47;66.63;;;31.88;;
58864;SDS011;45702;52.982;6.658;2023-01-29T02:51:30;72.47;;;32.05;;
58864;SDS011;45702;52.982;6.658;2023-01-29T02:54:02;64.50;;;30.65;;
58864;SDS011;45702;52.982;6.658;2023-01-29T02:56:58;66.68;;;31.75;;
58864;SDS011;45702;52.982;6.658;2023-01-29T02:59:39;64.80;;;32.08;;
58864;SDS011;45702;52.982;6.658;2023-01-29T03:02:11;69.88;;;31.30;;
58864;SDS011;45702;52.982;6.658;2023-01-29T03:04:43;69.53;;;31.52;;
58864;SDS011;45702;52.982;6.658;2023-01-29T03:07:19;67.38;;;31.08;;
58864;SDS011;45702;52.982;6.658;2023-01-29T03:10:23;65.07;;;30.42;;
58864;SDS011;45702;52.982;6.658;2023-01-29T03:13:18;70.18;;;31.05;;
58864;SDS011;45702;52.982;6.658;2023-01-29T03:15:50;70.25;;;30.33;;
58864;SDS011;45702;52.982;6.658;2023-01-29T03:18:25;61.42;;;29.38;;
58864;SDS011;45702;52.982;6.658;2023-01-29T03:20:57;62.85;;;29.38;;
58864;SDS011;45702;52.982;6.658;2023-01-29T03:23:28;66.25;;;30.23;;
58864;SDS011;45702;52.982;6.658;2023-01-29T03:26:17;66.22;;;29.88;;
58864;SDS011;45702;52.982;6.658;2023-01-29T03:29:04;66.53;;;30.02;;
58864;SDS011;45702;52.982;6.658;2023-01-29T03:31:50;60.13;;;28.70;;
58864;SDS011;45702;52.982;6.658;2023-01-29T03:34:42;63.65;;;28.38;;
58864;SDS011;45702;52.982;6.658;2023-01-29T03:37:15;59.03;;;27.45;;
58864;SDS011;45702;52.982;6.658;2023-01-29T03:39:49;65.00;;;29.30;;
58864;SDS011;45702;52.982;6.658;2023-01-29T03:47:17;60.13;;;28.27;;
58864;SDS011;45702;52.982;6.658;2023-01-29T03:52:20;63.45;;;29.63;;
58864;SDS011;45702;52.982;6.658;2023-01-29T03:54:53;65.90;;;28.85;;
58864;SDS011;45702;52.982;6.658;2023-01-29T04:03:04;62.60;;;29.52;;
58864;SDS011;45702;52.982;6.658;2023-01-29T04:05:42;58.38;;;26.98;;
58864;SDS011;45702;52.982;6.658;2023-01-29T04:08:15;60.25;;;28.48;;
58864;SDS011;45702;52.982;6.658;2023-01-29T04:10:47;61.08;;;28.90;;
58864;SDS011;45702;52.982;6.658;2023-01-29T04:13:15;59.73;;;27.73;;
58864;SDS011;45702;52.982;6.658;2023-01-29T04:15:45;55.33;;;26.93;;
58864;SDS011;45702;52.982;6.658;2023-01-29T04:18:12;59.03;;;27.63;;
58864;SDS011;45702;52.982;6.658;2023-01-29T04:20:38;61.67;;;28.23;;
58864;SDS011;45702;52.982;6.658;2023-01-29T04:23:05;58.42;;;28.30;;
58864;SDS011;45702;52.982;6.658;2023-01-29T04:25:36;59.67;;;29.05;;
58864;SDS011;45702;52.982;6.658;2023-01-29T04:30:56;62.08;;;28.08;;
58864;SDS011;45702;52.982;6.658;2023-01-29T04:36:20;60.13;;;29.08;;
58864;SDS011;45702;52.982;6.658;2023-01-29T04:39:14;59.38;;;27.08;;
58864;SDS011;45702;52.982;6.658;2023-01-29T04:44:47;59.78;;;28.02;;
58864;SDS011;45702;52.982;6.658;2023-01-29T04:50:01;62.95;;;29.05;;
58864;SDS011;45702;52.982;6.658;2023-01-29T04:55:39;63.00;;;29.20;;
58864;SDS011;45702;52.982;6.658;2023-01-29T04:58:25;58.97;;;28.08;;
58864;SDS011;45702;52.982;6.658;2023-01-29T05:01:08;64.60;;;29.00;;
58864;SDS011;45702;52.982;6.658;2023-01-29T05:03:37;64.88;;;29.88;;
58864;SDS011;45702;52.982;6.658;2023-01-29T05:08:33;62.22;;;29.40;;
58864;SDS011;45702;52.982;6.658;2023-01-29T05:11:03;61.47;;;28.70;;
58864;SDS011;45702;52.982;6.658;2023-01-29T05:13:29;66.63;;;28.45;;
58864;SDS011;45702;52.982;6.658;2023-01-29T05:16:00;66.78;;;29.65;;
58864;SDS011;45702;52.982;6.658;2023-01-29T05:18:30;65.72;;;29.83;;
58864;SDS011;45702;52.982;6.658;2023-01-29T05:20:56;68.72;;;29.20;;
58864;SDS011;45702;52.982;6.658;2023-01-29T05:23:28;67.15;;;30.40;;
58864;SDS011;45702;52.982;6.658;2023-01-29T05:25:53;65.88;;;30.33;;
58864;SDS011;45702;52.982;6.658;2023-01-29T05:28:21;68.90;;;31.10;;
58864;SDS011;45702;52.982;6.658;2023-01-29T05:30:50;71.10;;;32.08;;
58864;SDS011;45702;52.982;6.658;2023-01-29T05:33:22;70.32;;;32.85;;
58864;SDS011;45702;52.982;6.658;2023-01-29T05:35:49;67.80;;;31.92;;
58864;SDS011;45702;52.982;6.658;2023-01-29T05:38:16;70.10;;;31.92;;
58864;SDS011;45702;52.982;6.658;2023-01-29T05:40:42;68.60;;;31.20;;
58864;SDS011;45702;52.982;6.658;2023-01-29T05:43:15;68.00;;;31.58;;
58864;SDS011;45702;52.982;6.658;2023-01-29T05:45:42;67.35;;;32.47;;
58864;SDS011;45702;52.982;6.658;2023-01-29T05:48:18;65.43;;;32.22;;
58864;SDS011;45702;52.982;6.658;2023-01-29T05:50:44;72.78;;;33.75;;
58864;SDS011;45702;52.982;6.658;2023-01-29T05:53:10;68.32;;;31.88;;
58864;SDS011;45702;52.982;6.658;2023-01-29T05:55:35;70.00;;;32.58;;
58864;SDS011;45702;52.982;6.658;2023-01-29T05:58:01;70.65;;;33.88;;
58864;SDS011;45702;52.982;6.658;2023-01-29T06:00:27;72.93;;;34.75;;
58864;SDS011;45702;52.982;6.658;2023-01-29T06:02:52;76.45;;;35.50;;
58864;SDS011;45702;52.982;6.658;2023-01-29T06:05:18;69.68;;;35.20;;
58864;SDS011;45702;52.982;6.658;2023-01-29T06:07:44;72.43;;;34.90;;
58864;SDS011;45702;52.982;6.658;2023-01-29T06:10:11;71.57;;;33.30;;
58864;SDS011;45702;52.982;6.658;2023-01-29T06:12:38;74.68;;;34.53;;
58864;SDS011;45702;52.982;6.658;2023-01-29T06:15:04;72.95;;;35.53;;
58864;SDS011;45702;52.982;6.658;2023-01-29T06:17:30;76.35;;;33.80;;
58864;SDS011;45702;52.982;6.658;2023-01-29T06:19:55;74.50;;;36.20;;
58864;SDS011;45702;52.982;6.658;2023-01-29T06:22:21;69.72;;;34.15;;
58864;SDS011;45702;52.982;6.658;2023-01-29T06:24:47;71.57;;;34.58;;
58864;SDS011;45702;52.982;6.658;2023-01-29T06:27:12;73.43;;;34.88;;
58864;SDS011;45702;52.982;6.658;2023-01-29T06:29:38;72.05;;;33.80;;
58864;SDS011;45702;52.982;6.658;2023-01-29T06:32:04;71.97;;;34.80;;
58864;SDS011;45702;52.982;6.658;2023-01-29T06:34:29;72.32;;;35.28;;
58864;SDS011;45702;52.982;6.658;2023-01-29T06:36:55;68.97;;;34.88;;
58864;SDS011;45702;52.982;6.658;2023-01-29T06:39:21;74.72;;;35.42;;
58864;SDS011;45702;52.982;6.658;2023-01-29T06:41:47;72.68;;;36.03;;
58864;SDS011;45702;52.982;6.658;2023-01-29T06:44:12;71.97;;;35.40;;
58864;SDS011;45702;52.982;6.658;2023-01-29T06:46:38;72.80;;;36.65;;
58864;SDS011;45702;52.982;6.658;2023-01-29T06:49:04;72.97;;;34.75;;
58864;SDS011;45702;52.982;6.658;2023-01-29T06:51:29;75.07;;;36.80;;
58864;SDS011;45702;52.982;6.658;2023-01-29T06:53:55;70.30;;;35.75;;
58864;SDS011;45702;52.982;6.658;2023-01-29T06:56:21;73.70;;;36.05;;
58864;SDS011;45702;52.982;6.658;2023-01-29T06:58:48;72.88;;;36.72;;
58864;SDS011;45702;52.982;6.658;2023-01-29T07:01:13;77.35;;;37.42;;
58864;SDS011;45702;52.982;6.658;2023-01-29T07:03:39;77.70;;;39.00;;
58864;SDS011;45702;52.982;6.658;2023-01-29T07:06:08;78.40;;;38.40;;
58864;SDS011;45702;52.982;6.658;2023-01-29T07:08:37;78.13;;;37.85;;
58864;SDS011;45702;52.982;6.658;2023-01-29T07:11:04;77.00;;;38.10;;
58864;SDS011;45702;52.982;6.658;2023-01-29T07:13:30;77.43;;;38.28;;
58864;SDS011;45702;52.982;6.658;2023-01-29T07:16:00;74.57;;;38.42;;
58864;SDS011;45702;52.982;6.658;2023-01-29T07:18:26;79.75;;;39.67;;
58864;SDS011;45702;52.982;6.658;2023-01-29T07:20:53;86.13;;;39.80;;
58864;SDS011;45702;52.982;6.658;2023-01-29T07:23:19;82.05;;;39.35;;
58864;SDS011;45702;52.982;6.658;2023-01-29T07:25:45;72.60;;;38.78;;
58864;SDS011;45702;52.982;6.658;2023-01-29T07:28:13;84.65;;;39.90;;
58864;SDS011;45702;52.982;6.658;2023-01-29T07:30:40;87.93;;;41.15;;
58864;SDS011;45702;52.982;6.658;2023-01-29T07:33:07;82.28;;;39.78;;
58864;SDS011;45702;52.982;6.658;2023-01-29T07:35:37;85.07;;;41.15;;
58864;SDS011;45702;52.982;6.658;2023-01-29T07:38:04;82.00;;;40.60;;
58864;SDS011;45702;52.982;6.658;2023-01-29T07:40:34;79.35;;;39.70;;
58864;SDS011;45702;52.982;6.658;2023-01-29T07:43:00;84.70;;;39.85;;
58864;SDS011;45702;52.982;6.658;2023-01-29T07:45:28;82.20;;;39.90;;
58864;SDS011;45702;52.982;6.658;2023-01-29T07:47:54;81.70;;;40.78;;
58864;SDS011;45702;52.982;6.658;2023-01-29T07:50:20;81.15;;;41.47;;
58864;SDS011;45702;52.982;6.658;2023-01-29T07:52:47;84.15;;;42.42;;
58864;SDS011;45702;52.982;6.658;2023-01-29T07:55:12;84.68;;;41.10;;
58864;SDS011;45702;52.982;6.658;2023-01-29T07:57:38;87.97;;;42.15;;
58864;SDS011;45702;52.982;6.658;2023-01-29T08:00:04;87.22;;;41.00;;
58864;SDS011;45702;52.982;6.658;2023-01-29T08:02:30;88.38;;;41.53;;
58864;SDS011;45702;52.982;6.658;2023-01-29T08:04:56;87.68;;;42.05;;
58864;SDS011;45702;52.982;6.658;2023-01-29T08:07:21;82.95;;;40.20;;
58864;SDS011;45702;52.982;6.658;2023-01-29T08:09:47;86.97;;;42.28;;
58864;SDS011;45702;52.982;6.658;2023-01-29T08:12:13;86.60;;;41.63;;
58864;SDS011;45702;52.982;6.658;2023-01-29T08:14:39;91.35;;;43.60;;
58864;SDS011;45702;52.982;6.658;2023-01-29T08:17:05;87.20;;;40.72;;
58864;SDS011;45702;52.982;6.658;2023-01-29T08:19:30;87.50;;;41.58;;
58864;SDS011;45702;52.982;6.658;2023-01-29T08:21:56;84.80;;;39.88;;
58864;SDS011;45702;52.982;6.658;2023-01-29T08:24:23;89.63;;;42.10;;
58864;SDS011;45702;52.982;6.658;2023-01-29T08:26:49;90.22;;;42.90;;
58864;SDS011;45702;52.982;6.658;2023-01-29T08:29:14;87.80;;;41.28;;
58864;SDS011;45702;52.982;6.658;2023-01-29T08:31:40;89.20;;;42.03;;
58864;SDS011;45702;52.982;6.658;2023-01-29T08:34:06;85.95;;;42.33;;
58864;SDS011;45702;52.982;6.658;2023-01-29T08:36:31;89.13;;;42.60;;
58864;SDS011;45702;52.982;6.658;2023-01-29T08:38:58;89.05;;;42.17;;
58864;SDS011;45702;52.982;6.658;2023-01-29T08:41:24;87.93;;;40.40;;
58864;SDS011;45702;52.982;6.658;2023-01-29T08:43:49;84.60;;;40.78;;
58864;SDS011;45702;52.982;6.658;2023-01-29T08:46:15;89.43;;;39.45;;
58864;SDS011;45702;52.982;6.658;2023-01-29T08:48:41;86.45;;;39.63;;
58864;SDS011;45702;52.982;6.658;2023-01-29T08:51:07;92.95;;;39.75;;
58864;SDS011;45702;52.982;6.658;2023-01-29T08:53:33;94.32;;;42.15;;
58864;SDS011;45702;52.982;6.658;2023-01-29T08:55:58;87.45;;;40.15;;
58864;SDS011;45702;52.982;6.658;2023-01-29T08:58:24;90.68;;;39.60;;
58864;SDS011;45702;52.982;6.658;2023-01-29T09:00:50;88.57;;;40.00;;
58864;SDS011;45702;52.982;6.658;2023-01-29T09:03:15;86.90;;;40.40;;
58864;SDS011;45702;52.982;6.658;2023-01-29T09:05:41;82.93;;;39.13;;
58864;SDS011;45702;52.982;6.658;2023-01-29T09:08:08;88.43;;;39.70;;
58864;SDS011;45702;52.982;6.658;2023-01-29T09:10:34;92.90;;;39.78;;
58864;SDS011;45702;52.982;6.658;2023-01-29T09:13:00;94.82;;;42.50;;
58864;SDS011;45702;52.982;6.658;2023-01-29T09:15:29;87.30;;;40.28;;
58864;SDS011;45702;52.982;6.658;2023-01-29T09:17:55;74.38;;;30.58;;
58864;SDS011;45702;52.982;6.658;2023-01-29T09:20:21;89.63;;;40.45;;
58864;SDS011;45702;52.982;6.658;2023-01-29T09:22:47;92.18;;;39.65;;
58864;SDS011;45702;52.982;6.658;2023-01-29T09:25:13;84.38;;;37.55;;
58864;SDS011;45702;52.982;6.658;2023-01-29T09:27:39;83.75;;;37.90;;
58864;SDS011;45702;52.982;6.658;2023-01-29T09:30:05;88.15;;;37.70;;
58864;SDS011;45702;52.982;6.658;2023-01-29T09:32:32;86.18;;;38.72;;
58864;SDS011;45702;52.982;6.658;2023-01-29T09:34:58;89.03;;;38.72;;
58864;SDS011;45702;52.982;6.658;2023-01-29T09:37:24;86.65;;;39.03;;
58864;SDS011;45702;52.982;6.658;2023-01-29T09:39:50;79.18;;;33.97;;
58864;SDS011;45702;52.982;6.658;2023-01-29T09:45:20;82.55;;;38.30;;
58864;SDS011;45702;52.982;6.658;2023-01-29T09:47:48;82.85;;;36.35;;
58864;SDS011;45702;52.982;6.658;2023-01-29T09:50:20;87.07;;;38.25;;
58864;SDS011;45702;52.982;6.658;2023-01-29T09:52:52;78.70;;;36.88;;
58864;SDS011;45702;52.982;6.658;2023-01-29T09:55:26;90.13;;;39.20;;
58864;SDS011;45702;52.982;6.658;2023-01-29T09:57:56;86.97;;;37.97;;
58864;SDS011;45702;52.982;6.658;2023-01-29T10:06:14;92.68;;;39.28;;
58864;SDS011;45702;52.982;6.658;2023-01-29T10:17:10;82.93;;;35.58;;
58864;SDS011;45702;52.982;6.658;2023-01-29T10:20:18;85.82;;;37.97;;
58864;SDS011;45702;52.982;6.658;2023-01-29T10:25:38;97.95;;;40.67;;
58864;SDS011;45702;52.982;6.658;2023-01-29T10:28:15;87.23;;;34.83;;
58864;SDS011;45702;52.982;6.658;2023-01-29T10:33:49;81.40;;;37.28;;
58864;SDS011;45702;52.982;6.658;2023-01-29T10:36:30;90.60;;;39.67;;
58864;SDS011;45702;52.982;6.658;2023-01-29T10:38:56;88.18;;;38.40;;
58864;SDS011;45702;52.982;6.658;2023-01-29T10:41:25;84.07;;;36.45;;
58864;SDS011;45702;52.982;6.658;2023-01-29T10:44:50;87.30;;;37.50;;
58864;SDS011;45702;52.982;6.658;2023-01-29T10:47:13;87.85;;;38.90;;
58864;SDS011;45702;52.982;6.658;2023-01-29T10:49:56;90.93;;;37.92;;
58864;SDS011;45702;52.982;6.658;2023-01-29T10:52:48;96.80;;;39.47;;
58864;SDS011;45702;52.982;6.658;2023-01-29T10:55:40;97.03;;;39.75;;
58864;SDS011;45702;52.982;6.658;2023-01-29T10:58:40;92.25;;;38.42;;
58864;SDS011;45702;52.982;6.658;2023-01-29T11:01:45;88.45;;;38.15;;
58864;SDS011;45702;52.982;6.658;2023-01-29T11:04:26;92.07;;;39.63;;
58864;SDS011;45702;52.982;6.658;2023-01-29T11:07:00;89.25;;;39.28;;
58864;SDS011;45702;52.982;6.658;2023-01-29T11:09:33;89.97;;;38.72;;
58864;SDS011;45702;52.982;6.658;2023-01-29T11:12:19;97.43;;;40.80;;
58864;SDS011;45702;52.982;6.658;2023-01-29T11:17:33;95.57;;;40.17;;
58864;SDS011;45702;52.982;6.658;2023-01-29T11:20:02;98.20;;;40.17;;
58864;SDS011;45702;52.982;6.658;2023-01-29T11:22:53;96.32;;;40.90;;
58864;SDS011;45702;52.982;6.658;2023-01-29T11:25:23;95.82;;;40.38;;
58864;SDS011;45702;52.982;6.658;2023-01-29T11:27:56;89.80;;;36.92;;
58864;SDS011;45702;52.982;6.658;2023-01-29T11:30:36;95.40;;;40.80;;
58864;SDS011;45702;52.982;6.658;2023-01-29T11:33:09;98.75;;;41.03;;
58864;SDS011;45702;52.982;6.658;2023-01-29T11:35:46;94.60;;;40.88;;
58864;SDS011;45702;52.982;6.658;2023-01-29T11:38:17;105.20;;;42.95;;
58864;SDS011;45702;52.982;6.658;2023-01-29T11:40:50;110.50;;;44.17;;
58864;SDS011;45702;52.982;6.658;2023-01-29T11:43:29;103.78;;;43.20;;
58864;SDS011;45702;52.982;6.658;2023-01-29T11:46:05;97.97;;;41.67;;
58864;SDS011;45702;52.982;6.658;2023-01-29T11:51:20;104.95;;;43.25;;
58864;SDS011;45702;52.982;6.658;2023-01-29T11:53:53;104.80;;;42.55;;
58864;SDS011;45702;52.982;6.658;2023-01-29T11:56:29;103.10;;;43.42;;
58864;SDS011;45702;52.982;6.658;2023-01-29T11:59:02;98.90;;;42.97;;
58864;SDS011;45702;52.982;6.658;2023-01-29T12:01:36;102.60;;;43.00;;
58864;SDS011;45702;52.982;6.658;2023-01-29T12:06:43;92.65;;;40.17;;
58864;SDS011;45702;52.982;6.658;2023-01-29T12:09:17;100.78;;;42.55;;
58864;SDS011;45702;52.982;6.658;2023-01-29T12:11:46;97.25;;;40.10;;
58864;SDS011;45702;52.982;6.658;2023-01-29T12:14:59;101.75;;;41.15;;
58864;SDS011;45702;52.982;6.658;2023-01-29T12:17:18;92.18;;;39.65;;
58864;SDS011;45702;52.982;6.658;2023-01-29T12:19:58;97.75;;;41.03;;
58864;SDS011;45702;52.982;6.658;2023-01-29T12:25:20;91.65;;;38.80;;
58864;SDS011;45702;52.982;6.658;2023-01-29T12:27:58;88.15;;;37.80;;
58864;SDS011;45702;52.982;6.658;2023-01-29T12:30:40;87.88;;;37.08;;
58864;SDS011;45702;52.982;6.658;2023-01-29T12:33:45;89.25;;;38.92;;
58864;SDS011;45702;52.982;6.658;2023-01-29T12:36:20;85.10;;;36.53;;
58864;SDS011;45702;52.982;6.658;2023-01-29T12:39:00;82.43;;;35.67;;
58864;SDS011;45702;52.982;6.658;2023-01-29T12:41:40;80.55;;;37.13;;
58864;SDS011;45702;52.982;6.658;2023-01-29T12:44:15;82.20;;;35.60;;
58864;SDS011;45702;52.982;6.658;2023-01-29T12:46:50;79.55;;;34.45;;
58864;SDS011;45702;52.982;6.658;2023-01-29T12:49:27;81.93;;;34.72;;
58864;SDS011;45702;52.982;6.658;2023-01-29T12:52:20;73.28;;;31.70;;
58864;SDS011;45702;52.982;6.658;2023-01-29T12:55:04;79.20;;;34.58;;
58864;SDS011;45702;52.982;6.658;2023-01-29T12:58:01;73.43;;;33.63;;
58864;SDS011;45702;52.982;6.658;2023-01-29T13:00:38;77.43;;;34.47;;
58864;SDS011;45702;52.982;6.658;2023-01-29T13:06:04;72.45;;;33.22;;
58864;SDS011;45702;52.982;6.658;2023-01-29T13:08:35;81.10;;;36.15;;
58864;SDS011;45702;52.982;6.658;2023-01-29T13:11:13;76.03;;;34.45;;
58864;SDS011;45702;52.982;6.658;2023-01-29T13:13:57;81.88;;;34.95;;
58864;SDS011;45702;52.982;6.658;2023-01-29T13:16:48;77.35;;;35.08;;
58864;SDS011;45702;52.982;6.658;2023-01-29T13:19:30;77.30;;;34.42;;
58864;SDS011;45702;52.982;6.658;2023-01-29T13:22:18;82.90;;;33.75;;
58864;SDS011;45702;52.982;6.658;2023-01-29T13:24:47;79.00;;;34.53;;
58864;SDS011;45702;52.982;6.658;2023-01-29T13:27:19;76.10;;;35.53;;
58864;SDS011;45702;52.982;6.658;2023-01-29T13:29:56;76.70;;;34.35;;
58864;SDS011;45702;52.982;6.658;2023-01-29T13:32:26;83.15;;;35.88;;
58864;SDS011;45702;52.982;6.658;2023-01-29T13:35:05;78.68;;;32.92;;
58864;SDS011;45702;52.982;6.658;2023-01-29T13:37:51;86.78;;;36.42;;
58864;SDS011;45702;52.982;6.658;2023-01-29T13:40:24;82.35;;;35.95;;
58864;SDS011;45702;52.982;6.658;2023-01-29T13:42:55;82.88;;;36.40;;
58864;SDS011;45702;52.982;6.658;2023-01-29T13:45:41;84.63;;;35.85;;
58864;SDS011;45702;52.982;6.658;2023-01-29T13:51:01;80.10;;;36.28;;
58864;SDS011;45702;52.982;6.658;2023-01-29T13:53:42;93.43;;;39.33;;
58864;SDS011;45702;52.982;6.658;2023-01-29T13:59:20;88.60;;;38.17;;
58864;SDS011;45702;52.982;6.658;2023-01-29T14:02:17;86.90;;;38.17;;
58864;SDS011;45702;52.982;6.658;2023-01-29T14:10:36;86.82;;;37.40;;
58864;SDS011;45702;52.982;6.658;2023-01-29T14:18:24;93.82;;;38.03;;
58864;SDS011;45702;52.982;6.658;2023-01-29T14:21:04;87.43;;;37.00;;
58864;SDS011;45702;52.982;6.658;2023-01-29T14:26:02;101.40;;;41.92;;
58864;SDS011;45702;52.982;6.658;2023-01-29T14:28:35;101.97;;;41.58;;
58864;SDS011;45702;52.982;6.658;2023-01-29T14:31:02;106.75;;;43.67;;
58864;SDS011;45702;52.982;6.658;2023-01-29T14:33:35;106.60;;;43.70;;
58864;SDS011;45702;52.982;6.658;2023-01-29T14:36:05;105.53;;;43.63;;
58864;SDS011;45702;52.982;6.658;2023-01-29T14:38:36;110.78;;;44.17;;
58864;SDS011;45702;52.982;6.658;2023-01-29T14:41:14;106.22;;;41.92;;
58864;SDS011;45702;52.982;6.658;2023-01-29T14:47:18;106.20;;;42.97;;
58864;SDS011;45702;52.982;6.658;2023-01-29T14:49:49;116.07;;;44.15;;
58864;SDS011;45702;52.982;6.658;2023-01-29T14:58:04;117.18;;;45.30;;
58864;SDS011;45702;52.982;6.658;2023-01-29T15:00:38;121.05;;;46.30;;
58864;SDS011;45702;52.982;6.658;2023-01-29T15:06:09;114.40;;;43.50;;
58864;SDS011;45702;52.982;6.658;2023-01-29T15:09:05;124.30;;;47.47;;
58864;SDS011;45702;52.982;6.658;2023-01-29T15:11:39;99.80;;;38.58;;
58864;SDS011;45702;52.982;6.658;2023-01-29T15:14:23;124.38;;;47.83;;
58864;SDS011;45702;52.982;6.658;2023-01-29T15:19:42;130.10;;;48.22;;
58864;SDS011;45702;52.982;6.658;2023-01-29T15:22:21;121.05;;;47.22;;
58864;SDS011;45702;52.982;6.658;2023-01-29T15:25:04;132.30;;;49.92;;
58864;SDS011;45702;52.982;6.658;2023-01-29T15:27:46;126.95;;;48.97;;
58864;SDS011;45702;52.982;6.658;2023-01-29T15:30:24;124.88;;;47.97;;
58864;SDS011;45702;52.982;6.658;2023-01-29T15:32:53;128.50;;;48.35;;
58864;SDS011;45702;52.982;6.658;2023-01-29T15:35:27;125.07;;;49.28;;
58864;SDS011;45702;52.982;6.658;2023-01-29T15:38:00;130.48;;;49.55;;
58864;SDS011;45702;52.982;6.658;2023-01-29T15:40:51;140.07;;;51.08;;
58864;SDS011;45702;52.982;6.658;2023-01-29T15:43:27;127.63;;;47.70;;
58864;SDS011;45702;52.982;6.658;2023-01-29T15:46:09;130.57;;;47.92;;
58864;SDS011;45702;52.982;6.658;2023-01-29T15:48:46;140.20;;;50.22;;
58864;SDS011;45702;52.982;6.658;2023-01-29T15:51:14;130.10;;;49.03;;
58864;SDS011;45702;52.982;6.658;2023-01-29T15:53:48;133.88;;;49.33;;
58864;SDS011;45702;52.982;6.658;2023-01-29T15:56:24;134.65;;;49.78;;
58864;SDS011;45702;52.982;6.658;2023-01-29T15:58:59;127.22;;;48.83;;
58864;SDS011;45702;52.982;6.658;2023-01-29T16:01:27;128.80;;;49.10;;
58864;SDS011;45702;52.982;6.658;2023-01-29T16:03:57;125.40;;;46.60;;
58864;SDS011;45702;52.982;6.658;2023-01-29T16:06:35;124.40;;;45.58;;
58864;SDS011;45702;52.982;6.658;2023-01-29T16:09:03;131.68;;;50.80;;
58864;SDS011;45702;52.982;6.658;2023-01-29T16:11:30;129.63;;;48.78;;
58864;SDS011;45702;52.982;6.658;2023-01-29T16:13:57;136.48;;;51.35;;
58864;SDS011;45702;52.982;6.658;2023-01-29T16:16:24;136.90;;;50.55;;
58864;SDS011;45702;52.982;6.658;2023-01-29T16:18:52;128.10;;;46.58;;
58864;SDS011;45702;52.982;6.658;2023-01-29T16:24:04;131.15;;;46.72;;
58864;SDS011;45702;52.982;6.658;2023-01-29T16:26:40;131.55;;;49.70;;
58864;SDS011;45702;52.982;6.658;2023-01-29T16:29:12;130.43;;;50.13;;
58864;SDS011;45702;52.982;6.658;2023-01-29T16:31:44;124.28;;;46.78;;
58864;SDS011;45702;52.982;6.658;2023-01-29T16:34:23;127.30;;;48.47;;
58864;SDS011;45702;52.982;6.658;2023-01-29T16:36:55;127.05;;;48.28;;
58864;SDS011;45702;52.982;6.658;2023-01-29T16:39:27;120.18;;;46.33;;
58864;SDS011;45702;52.982;6.658;2023-01-29T16:44:49;123.85;;;47.58;;
58864;SDS011;45702;52.982;6.658;2023-01-29T16:47:58;122.30;;;47.15;;
58864;SDS011;45702;52.982;6.658;2023-01-29T16:50:47;121.47;;;47.40;;
58864;SDS011;45702;52.982;6.658;2023-01-29T16:53:32;117.57;;;44.88;;
58864;SDS011;45702;52.982;6.658;2023-01-29T16:56:04;118.65;;;45.33;;